עמוד ראשי
METAR-TAF:

METAR-TAF

שדות תעופה :

נמל התעופה ואוגר

Sørvágur, איי פארו, דנמרק

קו רוחב: 62-04N, קו אורך: 007-17W, גובה: 85מטר

תצפית מזג אוויר נוכחית

הדו"ח נערך לפני 42דקות, בשעה 15:20 UTC
רוח 18קשר מכיוון צפון/צפון-מערב
טמפרטורת 5 צלסיוס
לחות 70%
לחץ 1016 hPa
ראות 10 קילומטר או יותר

METAR: EKVG 241520Z AUTO 34018KT 9999 NCD 05/M00 Q1016 RMK NCD WIND SKEID 35018G38KT 320V120

זמן: 18:02 (16:02 UTC)

תחזית

הדו"ח נערך לפני 1 שעות ו 58דקות, בשעה 14:04 UTC
תחזית בתוקף מ 24 ב 15 UTC עד 24 ב 21 UTC
רוח 15קשר מכיוון צפון
ראות 10 קילומטר או יותר
עננים פזורים בגובה 2000רגל

TAF: EKVG 241404Z 2415/2421 35015KT 9999 SCT020

תצפיות ותחזיות מזג אוויר לגבי יותר מ- 4,000 שדות תעופה ברחבי העולם. דוחות METAR ו- TAF.

התחנות הזמינות מסומנות בנקודות צהובות ואדומות על גבי המפה.

העבר את העכבר לנקודה הצבעונית על מנת לראות את שם התחנה.

לאחר מכן, לחץ כדי לראות את תוכן ואת תחזיות מזג האוויר.

כדי לשנות את המפה: לחץ על הכפתורים הירוקים עם הפלוס השחור כדי להתקרב; על הכפתור הירוק עם המקף כדי להתרחק; או בחיצים הירוקים למפות סמוכות.


METAR-TAF: